Time;durP1;ratioP1;P1;durP2;ratioP2;P2;SDS_P1;SDS_P2;PMS_P1;PMS_P2;Temp;Humidity;BMP_temperature;BMP_pressure;BME280_temperature;BME280_humidity;BME280_pressure;Samples;Min_cycle;Max_cycle;Signal;HPM_P1;HPM_P2
2023/05/07 00:00:42;;;;;;;36.20;6.63;;;;;;;18.65;nan;101595.25;5027553;28;20452;-91
2023/05/07 00:03:15;;;;;;;34.70;5.47;;;;;;;18.64;nan;101599.09;4999726;28;20439;-91
2023/05/07 00:06:21;;;;;;;35.03;6.90;;;;;;;18.58;nan;101598.03;5010318;28;21278;-91
2023/05/07 00:08:49;;;;;;;39.63;6.00;;;;;;;18.48;nan;101572.75;5032676;28;20803;-92
2023/05/07 00:11:35;;;;;;;31.23;5.53;;;;;;;18.49;nan;101577.22;4999688;28;20486;-91
2023/05/07 00:14:05;;;;;;;30.27;5.47;;;;;;;18.53;nan;101581.25;5001874;28;20443;-91
2023/05/07 00:16:37;;;;;;;34.17;5.93;;;;;;;18.63;nan;101592.72;5018340;28;20452;-91
2023/05/07 00:19:04;;;;;;;42.03;5.90;;;;;;;18.61;nan;101585.69;5002136;28;20454;-92
2023/05/07 00:21:47;;;;;;;39.30;6.93;;;;;;;18.58;nan;101594.41;4984386;28;20479;-92
2023/05/07 00:24:17;;;;;;;36.33;5.50;;;;;;;18.61;nan;101581.00;5018495;28;20589;-92
2023/05/07 00:26:45;;;;;;;32.10;5.50;;;;;;;18.60;nan;101587.63;4983115;28;20447;-92
2023/05/07 00:29:14;;;;;;;35.93;6.17;;;;;;;18.57;nan;101582.50;4980135;28;20441;-92
2023/05/07 00:31:42;;;;;;;40.33;5.93;;;;;;;18.56;nan;101580.81;4999000;28;20443;-92
2023/05/07 00:34:30;;;;;;;32.70;5.73;;;;;;;18.59;nan;101591.47;4982828;28;20934;-92
2023/05/07 00:37:08;;;;;;;31.67;6.50;;;;;;;18.60;nan;101598.69;5004151;28;20514;-91
2023/05/07 00:40:06;;;;;;;31.43;6.03;;;;;;;18.55;nan;101587.41;5002222;28;20465;-91
2023/05/07 00:42:36;;;;;;;24.77;4.73;;;;;;;18.55;nan;101592.94;4940371;29;20573;-91
2023/05/07 00:45:17;;;;;;;27.73;6.13;;;;;;;18.51;nan;101585.31;4954441;28;20466;-93
2023/05/07 00:47:59;;;;;;;33.43;5.57;;;;;;;18.53;nan;101589.56;4939868;28;20468;-91
2023/05/07 00:50:28;;;;;;;22.07;4.37;;;;;;;18.51;nan;101577.00;4924320;29;20908;-93
2023/05/07 00:52:55;;;;;;;35.07;4.93;;;;;;;18.56;nan;101602.09;4939372;29;20486;-87
2023/05/07 00:55:28;;;;;;;20.70;4.77;;;;;;;18.53;nan;101600.63;4953290;29;20448;-88
2023/05/07 00:57:57;;;;;;;18.37;4.13;;;;;;;18.45;nan;101587.09;4967884;28;20828;-88
2023/05/07 01:00:31;;;;;;;18.67;4.13;;;;;;;18.47;nan;101592.41;4938474;28;20453;-88
2023/05/07 01:03:00;;;;;;;23.37;3.70;;;;;;;18.45;nan;101598.16;5012200;28;20936;-89
2023/05/07 01:05:27;;;;;;;29.30;5.47;;;;;;;18.44;nan;101590.91;5032071;28;20451;-89
2023/05/07 01:08:34;;;;;;;24.50;3.97;;;;;;;18.46;nan;101588.78;4998209;28;20517;-89
2023/05/07 01:11:03;;;;;;;26.53;3.80;;;;;;;18.39;nan;101579.66;5034469;28;21050;-89
2023/05/07 01:13:48;;;;;;;24.53;4.07;;;;;;;18.44;nan;101593.69;5005861;28;20495;-90
2023/05/07 01:16:18;;;;;;;31.57;3.50;;;;;;;18.36;nan;101580.13;5017020;28;20448;-90
2023/05/07 01:18:48;;;;;;;17.40;3.73;;;;;;;18.47;nan;101595.16;5016757;28;20455;-89
2023/05/07 01:21:16;;;;;;;30.63;4.33;;;;;;;18.45;nan;101587.09;5032989;28;20458;-89
2023/05/07 01:23:45;;;;;;;24.23;3.77;;;;;;;18.45;nan;101584.31;5016827;28;20470;-89
2023/05/07 01:26:12;;;;;;;22.60;4.00;;;;;;;18.42;nan;101579.22;5000766;28;20930;-89
2023/05/07 01:28:42;;;;;;;22.37;3.90;;;;;;;18.40;nan;101581.38;5016834;28;20804;-89
2023/05/07 01:31:10;;;;;;;19.00;3.27;;;;;;;18.33;nan;101575.03;5016199;28;20495;-90
2023/05/07 01:33:39;;;;;;;26.30;3.40;;;;;;;18.37;nan;101581.81;4919228;29;20558;-89
2023/05/07 01:36:08;;;;;;;17.53;3.80;;;;;;;18.34;nan;101571.19;4919302;29;20452;-89
2023/05/07 01:38:36;;;;;;;22.67;3.20;;;;;;;18.35;nan;101572.88;4903984;29;20459;-90
2023/05/07 01:41:05;;;;;;;13.37;3.00;;;;;;;18.32;nan;101576.09;4903862;29;20464;-90
2023/05/07 01:43:33;;;;;;;22.93;3.00;;;;;;;18.37;nan;101575.44;4903484;29;20470;-90
2023/05/07 01:46:01;;;;;;;17.93;3.43;;;;;;;18.34;nan;101575.88;4903356;29;20857;-90
2023/05/07 01:48:32;;;;;;;21.10;3.37;;;;;;;18.34;nan;101576.72;4934340;29;20464;-89
2023/05/07 01:51:00;;;;;;;24.97;3.90;;;;;;;18.35;nan;101581.19;4918603;29;20500;-90
2023/05/07 01:53:29;;;;;;;22.40;3.57;;;;;;;18.32;nan;101567.78;4866067;29;20603;-90
2023/05/07 01:55:58;;;;;;;21.90;3.90;;;;;;;18.32;nan;101561.41;4896594;29;20453;-89
2023/05/07 01:58:25;;;;;;;19.50;3.80;;;;;;;18.26;nan;101560.41;4919670;28;20454;-89
2023/05/07 02:00:53;;;;;;;21.73;4.00;;;;;;;18.21;nan;101560.22;4960464;28;20503;-89
2023/05/07 02:03:22;;;;;;;20.20;3.37;;;;;;;18.22;nan;101561.91;4960208;28;20460;-89
2023/05/07 02:05:50;;;;;;;22.63;3.40;;;;;;;18.20;nan;101569.59;4975876;28;20917;-90
2023/05/07 02:08:17;;;;;;;21.70;3.27;;;;;;;18.20;nan;101564.91;4976141;28;20449;-90
2023/05/07 02:10:49;;;;;;;29.50;3.93;;;;;;;18.21;nan;101568.53;4982078;28;20486;-90
2023/05/07 02:13:19;;;;;;;18.23;3.23;;;;;;;18.15;nan;101563.88;5015865;28;20450;-90
2023/05/07 02:15:50;;;;;;;21.63;3.63;;;;;;;18.19;nan;101568.75;5016149;28;20451;-88
2023/05/07 02:18:18;;;;;;;19.43;3.83;;;;;;;18.20;nan;101566.81;5033188;28;20448;-89
2023/05/07 02:20:46;;;;;;;27.63;3.40;;;;;;;18.18;nan;101563.44;5015571;28;20448;-89
2023/05/07 02:23:14;;;;;;;14.60;3.17;;;;;;;18.20;nan;101575.13;4999837;28;20455;-89
2023/05/07 02:25:41;;;;;;;19.33;4.13;;;;;;;18.15;nan;101566.66;5015692;28;20451;-90
2023/05/07 02:28:10;;;;;;;18.93;3.00;;;;;;;18.19;nan;101578.97;4999594;28;20451;-89
2023/05/07 02:30:38;;;;;;;26.37;4.80;;;;;;;18.15;nan;101573.03;4999333;28;20491;-89
2023/05/07 02:33:08;;;;;;;20.00;4.07;;;;;;;18.16;nan;101573.88;5015849;28;20448;-90
2023/05/07 02:35:36;;;;;;;28.33;4.20;;;;;;;18.09;nan;101568.38;5015421;28;20961;-89
2023/05/07 02:38:03;;;;;;;27.77;3.93;;;;;;;18.11;nan;101560.69;5015455;28;20443;-89
2023/05/07 02:40:38;;;;;;;21.90;4.50;;;;;;;18.10;nan;101572.00;4999430;28;20514;-89
2023/05/07 02:43:07;;;;;;;28.77;5.03;;;;;;;18.13;nan;101566.88;5016611;28;20458;-89
2023/05/07 02:45:37;;;;;;;28.70;4.70;;;;;;;18.09;nan;101559.25;5015198;28;20452;-89
2023/05/07 02:48:08;;;;;;;26.40;4.13;;;;;;;18.11;nan;101571.78;5031183;28;20451;-88
2023/05/07 02:50:38;;;;;;;31.93;4.63;;;;;;;18.11;nan;101568.16;4999187;28;20499;-89
2023/05/07 02:53:05;;;;;;;21.23;4.20;;;;;;;18.09;nan;101568.38;5015511;28;20436;-89
2023/05/07 02:55:33;;;;;;;25.23;4.30;;;;;;;18.08;nan;101560.31;4999265;28;20462;-88
2023/05/07 02:58:01;;;;;;;27.87;5.07;;;;;;;18.07;nan;101558.63;5015330;28;20477;-88
2023/05/07 03:00:28;;;;;;;32.07;4.83;;;;;;;18.06;nan;101562.47;5015384;28;20447;-89
2023/05/07 03:02:56;;;;;;;26.13;4.80;;;;;;;18.08;nan;101563.09;5015202;28;20456;-89
2023/05/07 03:05:25;;;;;;;20.50;3.87;;;;;;;18.11;nan;101559.84;5014867;28;20455;-88
2023/05/07 03:07:53;;;;;;;20.50;4.30;;;;;;;18.12;nan;101559.63;5015321;28;20941;-89
2023/05/07 03:10:22;;;;;;;17.63;4.17;;;;;;;18.10;nan;101552.63;5014867;28;20475;-88
2023/05/07 03:12:50;;;;;;;37.23;5.57;;;;;;;18.12;nan;101561.56;5015350;28;20942;-88
2023/05/07 03:15:17;;;;;;;21.53;4.60;;;;;;;18.10;nan;101558.16;5031560;28;20466;-88
2023/05/07 03:17:45;;;;;;;24.67;4.60;;;;;;;18.09;nan;101557.31;5014704;28;20475;-88
2023/05/07 03:20:13;;;;;;;20.63;3.70;;;;;;;18.11;nan;101563.47;5015045;28;20447;-89
2023/05/07 03:22:41;;;;;;;29.43;4.40;;;;;;;18.10;nan;101559.00;4998365;28;20800;-89
2023/05/07 03:25:09;;;;;;;30.40;4.07;;;;;;;18.03;nan;101557.38;5018097;28;20452;-88
2023/05/07 03:27:39;;;;;;;23.90;4.43;;;;;;;18.03;nan;101554.59;5018775;28;20458;-89
2023/05/07 03:30:13;;;;;;;28.07;5.10;;;;;;;18.05;nan;101558.00;5018378;28;20455;-89
2023/05/07 03:32:43;;;;;;;28.00;4.80;;;;;;;18.06;nan;101563.31;5018608;28;20997;-89
2023/05/07 03:35:12;;;;;;;20.60;4.33;;;;;;;18.03;nan;101554.59;5034835;28;20439;-88
2023/05/07 03:37:40;;;;;;;24.10;4.20;;;;;;;18.05;nan;101566.31;5002234;28;20459;-89
2023/05/07 03:40:09;;;;;;;32.63;5.80;;;;;;;18.05;nan;101560.78;5002371;28;20451;-88
2023/05/07 03:42:38;;;;;;;22.93;4.20;;;;;;;18.08;nan;101566.72;5019039;28;20934;-89
2023/05/07 03:45:09;;;;;;;23.57;4.73;;;;;;;18.05;nan;101555.25;5002314;28;20447;-90
2023/05/07 03:47:37;;;;;;;29.73;4.60;;;;;;;18.03;nan;101551.84;5018589;28;20454;-88
2023/05/07 03:50:06;;;;;;;23.37;3.73;;;;;;;18.04;nan;101559.06;5002015;28;20447;-89
2023/05/07 03:52:34;;;;;;;26.20;4.07;;;;;;;17.99;nan;101559.75;5002094;28;21023;-89
2023/05/07 03:55:03;;;;;;;26.30;5.10;;;;;;;18.04;nan;101559.06;5018226;28;20447;-89
2023/05/07 03:57:32;;;;;;;21.97;4.57;;;;;;;17.98;nan;101543.34;5017761;28;20489;-89
2023/05/07 04:00:01;;;;;;;22.93;4.10;;;;;;;18.01;nan;101543.75;5018055;28;20456;-89
2023/05/07 04:02:30;;;;;;;25.07;5.30;;;;;;;17.97;nan;101541.66;5018245;28;20810;-89
2023/05/07 04:04:57;;;;;;;26.40;4.07;;;;;;;18.00;nan;101546.75;5002034;28;20497;-89
2023/05/07 04:07:25;;;;;;;18.13;3.87;;;;;;;17.99;nan;101545.91;5001435;28;20471;-90
2023/05/07 04:09:55;;;;;;;22.23;4.60;;;;;;;17.99;nan;101534.84;5017876;28;20456;-89
2023/05/07 04:12:24;;;;;;;25.50;4.07;;;;;;;17.99;nan;101528.47;5034335;28;20487;-89
2023/05/07 04:14:51;;;;;;;30.83;4.63;;;;;;;17.98;nan;101524.84;5001639;28;20509;-89
2023/05/07 04:17:19;;;;;;;22.67;3.97;;;;;;;17.99;nan;101529.31;5001878;28;20830;-89
2023/05/07 04:19:48;;;;;;;17.33;3.70;;;;;;;18.00;nan;101542.06;5017815;28;20459;-88
2023/05/07 04:22:15;;;;;;;19.90;3.50;;;;;;;17.97;nan;101536.13;5001641;28;20452;-89
2023/05/07 04:24:43;;;;;;;24.33;4.87;;;;;;;17.94;nan;101532.72;5001113;28;20856;-88
2023/05/07 04:27:11;;;;;;;21.43;3.70;;;;;;;17.97;nan;101542.50;5017685;28;20440;-88
2023/05/07 04:29:42;;;;;;;28.40;5.00;;;;;;;17.95;nan;101534.44;5001161;28;20501;-89
2023/05/07 04:32:10;;;;;;;22.60;4.20;;;;;;;17.94;nan;101531.88;5033677;28;20493;-88
2023/05/07 04:34:39;;;;;;;27.37;3.70;;;;;;;17.99;nan;101525.69;5017183;28;20489;-88
2023/05/07 04:37:07;;;;;;;20.63;3.77;;;;;;;17.98;nan;101521.22;5017264;28;20459;-89
2023/05/07 04:39:36;;;;;;;28.73;4.63;;;;;;;17.98;nan;101532.28;5017357;28;20455;-89
2023/05/07 04:42:08;;;;;;;32.93;4.40;;;;;;;17.99;nan;101534.00;4954842;29;20462;-89
2023/05/07 04:44:37;;;;;;;18.03;3.60;;;;;;;17.93;nan;101519.97;4938950;29;20566;-89
2023/05/07 04:47:04;;;;;;;20.70;4.30;;;;;;;17.89;nan;101524.28;4954459;29;20459;-89
2023/05/07 04:49:32;;;;;;;18.43;4.77;;;;;;;17.84;nan;101514.94;4954573;28;20471;-89
2023/05/07 04:52:00;;;;;;;28.30;4.83;;;;;;;17.91;nan;101529.56;4970183;28;20494;-89
2023/05/07 04:54:30;;;;;;;22.50;3.80;;;;;;;17.88;nan;101533.66;4954181;28;20443;-89
2023/05/07 04:56:58;;;;;;;24.83;3.47;;;;;;;17.84;nan;101532.38;4923044;29;20486;-89
2023/05/07 04:59:26;;;;;;;22.80;4.20;;;;;;;17.82;nan;101537.28;4937183;28;20504;-90
2023/05/07 05:01:54;;;;;;;16.63;3.30;;;;;;;17.74;nan;101537.53;5017037;28;20519;-89
2023/05/07 05:04:23;;;;;;;16.93;3.70;;;;;;;17.73;nan;101538.63;5017464;28;20835;-89
2023/05/07 05:06:50;;;;;;;24.63;4.10;;;;;;;17.68;nan;101532.06;5016704;28;20536;-90
2023/05/07 05:09:18;;;;;;;21.60;3.87;;;;;;;17.68;nan;101538.44;5017004;28;20467;-91
2023/05/07 05:11:46;;;;;;;22.30;3.77;;;;;;;17.64;nan;101536.31;5032640;28;20972;-90
2023/05/07 05:14:15;;;;;;;25.03;4.53;;;;;;;17.57;nan;101541.88;5000266;28;20448;-90
2023/05/07 05:16:43;;;;;;;17.87;4.90;;;;;;;17.51;nan;101542.75;5016725;28;20455;-90
2023/05/07 05:19:12;;;;;;;27.90;5.30;;;;;;;17.48;nan;101544.06;5001022;28;20447;-90
2023/05/07 05:21:40;;;;;;;33.90;6.63;;;;;;;17.46;nan;101545.34;5000011;28;20987;-89
2023/05/07 05:24:08;;;;;;;23.50;6.40;;;;;;;17.49;nan;101550.44;5000434;28;20448;-89
2023/05/07 05:26:37;;;;;;;18.67;5.63;;;;;;;17.49;nan;101544.91;5016376;28;20500;-89
2023/05/07 05:29:07;;;;;;;23.43;6.13;;;;;;;17.45;nan;101560.22;5032588;28;20451;-89
2023/05/07 05:31:36;;;;;;;25.10;4.70;;;;;;;17.37;nan;101552.16;5032627;28;20487;-89
2023/05/07 05:34:03;;;;;;;17.70;4.87;;;;;;;17.39;nan;101561.94;5000296;28;20460;-90
2023/05/07 05:36:32;;;;;;;20.73;5.10;;;;;;;17.36;nan;101556.00;5016556;28;20447;-90
2023/05/07 05:39:00;;;;;;;18.47;4.90;;;;;;;17.35;nan;101554.28;5016488;28;20463;-90
2023/05/07 05:41:28;;;;;;;26.00;5.80;;;;;;;17.32;nan;101560.28;5000549;28;20458;-89
2023/05/07 05:43:56;;;;;;;26.10;5.30;;;;;;;17.29;nan;101564.31;5016510;28;20455;-89
2023/05/07 05:46:24;;;;;;;18.87;5.50;;;;;;;17.26;nan;101564.75;5015370;28;20447;-90
2023/05/07 05:48:53;;;;;;;21.90;5.00;;;;;;;17.30;nan;101573.47;5000144;28;20443;-89
2023/05/07 05:51:21;;;;;;;21.40;4.60;;;;;;;17.28;nan;101570.91;5000280;28;20581;-90
2023/05/07 05:53:49;;;;;;;18.07;5.07;;;;;;;17.23;nan;101579.84;5016296;28;20436;-90
2023/05/07 05:56:17;;;;;;;27.40;5.30;;;;;;;17.23;nan;101590.91;5016345;28;20937;-90
2023/05/07 05:58:46;;;;;;;24.97;5.23;;;;;;;17.23;nan;101590.06;5016139;28;20474;-90
2023/05/07 06:01:13;;;;;;;19.33;4.70;;;;;;;17.25;nan;101583.25;5000083;28;20456;-90
2023/05/07 06:03:41;;;;;;;16.90;4.30;;;;;;;17.27;nan;101583.88;5016186;28;20861;-89
2023/05/07 06:06:12;;;;;;;24.20;6.07;;;;;;;17.34;nan;101585.75;4999789;28;20467;-91
2023/05/07 06:08:43;;;;;;;22.03;4.83;;;;;;;17.43;nan;101603.81;5032320;28;20447;-90
2023/05/07 06:11:11;;;;;;;19.67;5.00;;;;;;;17.37;nan;101601.91;5016757;28;20479;-89
2023/05/07 06:13:40;;;;;;;30.53;5.90;;;;;;;17.46;nan;101607.00;4999905;28;20448;-90
2023/05/07 06:16:09;;;;;;;25.67;4.63;;;;;;;17.45;nan;101604.44;5016103;28;20451;-90
2023/05/07 06:18:39;;;;;;;25.30;5.60;;;;;;;17.50;nan;101591.66;5015828;28;20501;-90
2023/05/07 06:21:08;;;;;;;26.50;5.10;;;;;;;17.57;nan;101599.91;5015608;28;20466;-90
2023/05/07 06:23:37;;;;;;;15.23;4.07;;;;;;;17.63;nan;101612.03;5016294;28;20933;-90
2023/05/07 06:26:04;;;;;;;19.93;4.77;;;;;;;17.67;nan;101614.16;4999756;28;20509;-90
2023/05/07 06:28:35;;;;;;;30.73;6.47;;;;;;;17.70;nan;101612.88;4999691;28;20834;-90
2023/05/07 06:31:15;;;;;;;23.27;5.37;;;;;;;17.74;nan;101612.19;5016492;28;20481;-90
2023/05/07 06:33:44;;;;;;;18.00;4.63;;;;;;;17.75;nan;101622.19;4999921;28;20451;-90
2023/05/07 06:36:12;;;;;;;26.90;5.80;;;;;;;17.77;nan;101617.31;4944349;28;20454;-90
2023/05/07 06:38:42;;;;;;;21.03;5.60;;;;;;;17.83;nan;101624.72;4959983;28;20460;-90
2023/05/07 06:41:11;;;;;;;26.40;5.77;;;;;;;17.91;nan;101631.91;4975856;28;20464;-90
2023/05/07 06:43:40;;;;;;;26.13;6.33;;;;;;;17.95;nan;101631.25;4975807;28;20499;-90
2023/05/07 06:46:07;;;;;;;19.90;5.53;;;;;;;17.97;nan;101636.56;4975795;28;20854;-90
2023/05/07 06:48:37;;;;;;;24.23;6.63;;;;;;;18.03;nan;101630.16;4975992;28;20450;-90
2023/05/07 06:51:06;;;;;;;29.27;5.53;;;;;;;18.09;nan;101633.97;4975478;28;20900;-90
2023/05/07 06:53:35;;;;;;;18.67;5.80;;;;;;;18.11;nan;101637.31;4998528;28;20950;-89
2023/05/07 06:56:05;;;;;;;29.47;7.00;;;;;;;18.15;nan;101633.91;4999059;28;20447;-90
2023/05/07 06:58:34;;;;;;;17.83;7.10;;;;;;;18.15;nan;101633.06;5017951;28;20478;-90
2023/05/07 07:01:02;;;;;;;26.20;7.13;;;;;;;18.19;nan;101637.06;5036015;28;20454;-90
2023/05/07 07:03:30;;;;;;;51.77;7.63;;;;;;;18.24;nan;101642.81;5002938;28;20455;-90
2023/05/07 07:05:58;;;;;;;22.47;6.67;;;;;;;18.30;nan;101642.75;5003318;28;20475;-91
2023/05/07 07:08:25;;;;;;;23.27;6.30;;;;;;;18.36;nan;101648.47;5019728;28;20447;-90
2023/05/07 07:10:54;;;;;;;25.70;5.57;;;;;;;18.37;nan;101644.63;5003872;28;20446;-89
2023/05/07 07:13:22;;;;;;;23.77;6.47;;;;;;;18.42;nan;101651.19;5003564;28;20941;-90
2023/05/07 07:15:51;;;;;;;27.67;6.10;;;;;;;18.45;nan;101648.00;5003171;28;20532;-90
2023/05/07 07:18:18;;;;;;;25.60;6.07;;;;;;;18.49;nan;101656.66;5002829;28;20448;-91
2023/05/07 07:20:48;;;;;;;25.50;5.93;;;;;;;18.53;nan;101661.53;5002820;28;20458;-91
2023/05/07 07:23:16;;;;;;;28.40;5.90;;;;;;;18.61;nan;101655.78;5019096;28;20523;-90
2023/05/07 07:25:45;;;;;;;22.67;4.67;;;;;;;18.65;nan;101667.25;5002873;28;20452;-90
2023/05/07 07:28:14;;;;;;;24.93;5.90;;;;;;;18.70;nan;101664.63;5019033;28;20516;-91
2023/05/07 07:30:42;;;;;;;23.20;5.43;;;;;;;18.76;nan;101668.44;4960221;28;20484;-91
2023/05/07 07:33:11;;;;;;;21.70;5.60;;;;;;;18.84;nan;101679.25;4959821;28;20512;-90
2023/05/07 07:35:39;;;;;;;26.80;6.60;;;;;;;18.87;nan;101681.53;4959634;28;20438;-90
2023/05/07 07:38:06;;;;;;;16.50;6.23;;;;;;;18.87;nan;101682.38;4959347;28;20968;-89
2023/05/07 07:40:37;;;;;;;23.83;8.07;;;;;;;18.92;nan;101678.94;4959745;28;20446;-90
2023/05/07 07:43:05;;;;;;;19.97;7.73;;;;;;;18.90;nan;101665.31;4959201;28;20925;-90
2023/05/07 07:45:35;;;;;;;26.80;7.93;;;;;;;18.95;nan;101661.88;4943403;28;20473;-90
2023/05/07 07:48:03;;;;;;;15.13;6.70;;;;;;;19.05;nan;101672.47;4984979;28;20443;-89
2023/05/07 07:50:30;;;;;;;26.57;7.37;;;;;;;19.09;nan;101663.44;5018478;28;20450;-89
2023/05/07 07:53:10;;;;;;;24.43;6.50;;;;;;;19.07;nan;101665.59;5019716;28;20483;-89
2023/05/07 07:55:39;;;;;;;18.70;6.20;;;;;;;19.10;nan;101669.84;5018285;28;20440;-90
2023/05/07 07:58:07;;;;;;;16.63;6.40;;;;;;;19.15;nan;101692.19;5017904;28;20933;-90
2023/05/07 08:00:36;;;;;;;22.67;7.07;;;;;;;19.17;nan;101693.66;5018363;28;20442;-89
2023/05/07 08:03:04;;;;;;;17.23;6.83;;;;;;;19.18;nan;101684.25;5018286;28;20795;-90
2023/05/07 08:05:32;;;;;;;23.93;6.50;;;;;;;19.21;nan;101689.34;5018058;28;20800;-89
2023/05/07 08:08:02;;;;;;;21.00;7.67;;;;;;;19.29;nan;101702.91;5018128;28;20463;-87
2023/05/07 08:10:34;;;;;;;21.03;7.40;;;;;;;19.33;nan;101692.22;5016999;28;20883;-86
2023/05/07 08:13:03;;;;;;;15.50;7.20;;;;;;;19.31;nan;101688.81;5035463;28;20491;-87
2023/05/07 08:15:31;;;;;;;16.27;6.50;;;;;;;19.41;nan;101689.16;5002093;28;20443;-90
2023/05/07 08:18:00;;;;;;;22.13;7.93;;;;;;;19.53;nan;101694.81;5001098;28;20447;-90
2023/05/07 08:20:30;;;;;;;21.20;6.43;;;;;;;19.64;nan;101683.78;5001404;28;21047;-89
2023/05/07 08:22:58;;;;;;;22.57;7.37;;;;;;;19.70;nan;101668.16;5017990;28;20459;-90
2023/05/07 08:25:28;;;;;;;18.30;6.30;;;;;;;19.74;nan;101679.66;5001178;28;20466;-89
2023/05/07 08:27:57;;;;;;;19.00;6.00;;;;;;;19.85;nan;101689.94;5017675;28;20500;-90
2023/05/07 08:30:24;;;;;;;14.53;5.03;;;;;;;19.88;nan;101681.16;5001408;28;20459;-90
2023/05/07 08:32:52;;;;;;;18.30;4.60;;;;;;;19.99;nan;101694.28;5017296;28;21005;-90
2023/05/07 08:35:20;;;;;;;26.63;6.37;;;;;;;20.08;nan;101684.53;5017421;28;20483;-90
2023/05/07 08:37:49;;;;;;;15.93;4.70;;;;;;;20.09;nan;101679.84;5016753;28;20454;-90
2023/05/07 08:40:19;;;;;;;11.17;4.30;;;;;;;20.15;nan;101681.69;5017243;28;20447;-89
2023/05/07 08:42:49;;;;;;;19.83;4.63;;;;;;;20.23;nan;101684.13;5017268;28;20504;-89
2023/05/07 08:45:17;;;;;;;21.03;5.13;;;;;;;20.30;nan;101674.63;5001456;28;20457;-89
2023/05/07 08:47:47;;;;;;;15.37;4.37;;;;;;;20.36;nan;101681.19;5017435;28;20460;-89
2023/05/07 08:50:15;;;;;;;23.33;5.10;;;;;;;20.50;nan;101687.41;5032756;28;20455;-89
2023/05/07 08:52:43;;;;;;;18.13;5.80;;;;;;;20.56;nan;101686.47;5017367;28;20483;-89
2023/05/07 08:55:11;;;;;;;18.80;4.93;;;;;;;20.69;nan;101683.47;5000844;28;20447;-89
2023/05/07 08:57:41;;;;;;;17.93;4.73;;;;;;;20.78;nan;101701.50;5016840;28;20463;-90
2023/05/07 09:00:12;;;;;;;11.23;4.63;;;;;;;20.85;nan;101701.38;5016363;28;20995;-90
2023/05/07 09:02:40;;;;;;;11.57;4.27;;;;;;;20.93;nan;101710.25;4957985;28;20572;-89
2023/05/07 09:05:10;;;;;;;14.67;4.43;;;;;;;20.90;nan;101687.63;4957764;28;20454;-90
2023/05/07 09:07:39;;;;;;;15.47;5.03;;;;;;;21.01;nan;101711.81;4973502;28;20921;-90
2023/05/07 09:10:09;;;;;;;12.47;4.00;;;;;;;21.08;nan;101707.00;4973328;28;20465;-90
2023/05/07 09:12:38;;;;;;;14.23;3.57;;;;;;;21.09;nan;101714.25;4863282;29;20487;-90
2023/05/07 09:15:07;;;;;;;12.03;3.67;;;;;;;21.19;nan;101706.13;4893730;29;20893;-89
2023/05/07 09:17:36;;;;;;;12.93;4.00;;;;;;;21.30;nan;101712.84;4862999;29;20485;-87
2023/05/07 09:20:05;;;;;;;15.10;4.03;;;;;;;21.45;nan;101717.91;4893801;29;20478;-88
2023/05/07 09:22:38;;;;;;;12.40;3.87;;;;;;;21.55;nan;101707.03;4825830;29;20959;-88
2023/05/07 09:25:07;;;;;;;12.63;3.97;;;;;;;21.67;nan;101727.34;4825971;29;20890;-87
2023/05/07 09:27:35;;;;;;;13.13;3.13;;;;;;;21.77;nan;101722.00;4864039;29;20455;-87
2023/05/07 09:30:06;;;;;;;15.70;4.40;;;;;;;21.84;nan;101717.16;4873482;29;20456;-87
2023/05/07 09:32:37;;;;;;;15.30;3.63;;;;;;;21.80;nan;101727.06;4919167;29;20554;-87
2023/05/07 09:35:14;;;;;;;15.43;3.70;;;;;;;21.86;nan;101731.66;4919398;29;20495;-88
2023/05/07 09:37:42;;;;;;;12.27;3.67;;;;;;;21.93;nan;101729.63;4919289;29;20447;-87
2023/05/07 09:40:29;;;;;;;14.23;4.30;;;;;;;22.05;nan;101733.25;4921621;29;20419;-88
2023/05/07 09:42:57;;;;;;;13.10;3.50;;;;;;;22.05;nan;101740.75;4903785;29;20448;-88
2023/05/07 09:45:28;;;;;;;9.57;3.10;;;;;;;21.93;nan;101735.19;4919011;29;20831;-87
2023/05/07 09:47:58;;;;;;;16.97;3.90;;;;;;;21.83;nan;101737.72;4993413;28;20451;-88
2023/05/07 09:50:30;;;;;;;13.63;3.77;;;;;;;21.86;nan;101742.81;5000383;28;20443;-88
2023/05/07 09:52:58;;;;;;;15.80;3.90;;;;;;;21.88;nan;101725.88;5016402;28;20487;-88
2023/05/07 09:55:25;;;;;;;17.20;4.30;;;;;;;21.94;nan;101728.50;5000231;28;20443;-88
2023/05/07 09:57:55;;;;;;;15.77;3.57;;;;;;;21.93;nan;101732.41;5000345;28;20435;-88
2023/05/07 10:00:24;;;;;;;18.50;3.20;;;;;;;21.90;nan;101752.38;5032648;28;20458;-88
2023/05/07 10:02:52;;;;;;;17.93;4.20;;;;;;;21.77;nan;101752.59;5000058;28;20447;-87
2023/05/07 10:05:21;;;;;;;14.53;3.53;;;;;;;21.86;nan;101755.88;5015814;28;20961;-87
2023/05/07 10:07:50;;;;;;;15.70;2.80;;;;;;;21.93;nan;101760.25;5015063;28;20490;-86
2023/05/07 10:10:17;;;;;;;10.30;2.93;;;;;;;22.12;nan;101746.19;4999623;28;20965;-87
2023/05/07 10:12:48;;;;;;;17.73;3.03;;;;;;;22.39;nan;101764.84;4999522;28;20988;-86
2023/05/07 10:15:15;;;;;;;19.03;4.60;;;;;;;;;;5033259;28;20449;-88
2023/05/07 10:17:43;;;;;;;15.57;3.93;;;;;;;;;;5032097;28;20505;-87
2023/05/07 10:20:12;;;;;;;10.90;3.30;;;;;;;22.77;nan;101765.31;5031733;28;20498;-87
2023/05/07 10:22:48;;;;;;;21.77;4.20;;;;;;;;;;5015270;28;20454;-86
2023/05/07 10:25:21;;;;;;;17.57;3.43;;;;;;;;;;5032246;28;20518;-89
2023/05/07 10:27:48;;;;;;;22.33;3.87;;;;;;;;;;5032071;28;20447;-89
2023/05/07 10:30:27;;;;;;;19.13;3.93;;;;;;;;;;5031648;28;20443;-90
2023/05/07 10:32:57;;;;;;;13.53;3.53;;;;;;;;;;5032655;28;20482;-90
2023/05/07 10:35:26;;;;;;;16.10;3.77;;;;;;;;;;5019239;28;20443;-89
2023/05/07 10:37:56;;;;;;;14.57;3.90;;;;;;;;;;5035987;28;20450;-96
2023/05/07 10:40:24;;;;;;;18.90;3.90;;;;;;;;;;5036818;28;20466;-94
2023/05/07 10:43:01;;;;;;;12.33;3.30;;;;;;;;;;5019293;28;20443;-89
2023/05/07 10:45:28;;;;;;;20.13;4.30;;;;;;;;;;5036712;28;20526;-95
2023/05/07 10:48:09;;;;;;;10.23;3.27;;;;;;;;;;5019773;28;20444;-91
2023/05/07 10:51:14;;;;;;;16.43;3.17;;;;;;;;;;5022736;28;20436;-92
2023/05/07 10:53:42;;;;;;;10.43;2.87;;;;;;;;;;5037299;28;20487;-92
2023/05/07 10:56:16;;;;;;;15.73;4.13;;;;;;;;;;5037890;28;20435;-92
2023/05/07 10:58:44;;;;;;;22.70;4.30;;;;;;;;;;5020167;28;20523;-92
2023/05/07 11:01:14;;;;;;;16.90;3.33;;;;;;;;;;5019666;28;20455;-91
2023/05/07 11:04:00;;;;;;;10.93;2.90;;;;;;;;;;5020173;28;20536;-92
2023/05/07 11:06:28;;;;;;;19.93;3.50;;;;;;;;;;5016522;28;20476;-93
2023/05/07 11:08:56;;;;;;;12.13;3.23;;;;;;;;;;5000103;28;20447;-92
2023/05/07 11:11:42;;;;;;;13.30;3.57;;;;;;;;;;5016740;28;20451;-92
2023/05/07 11:14:14;;;;;;;12.83;3.97;;;;;;;;;;5016108;28;20484;-92
2023/05/07 11:16:43;;;;;;;23.57;6.40;;;;;;;;;;5000378;28;20510;-93
2023/05/07 11:19:11;;;;;;;14.33;3.90;;;;;;;;;;5032145;28;20470;-92
2023/05/07 11:21:40;;;;;;;17.77;3.50;;;;;;;;;;5032702;28;20818;-92
2023/05/07 11:24:07;;;;;;;19.60;4.03;;;;;;;;;;5032658;28;20432;-92
2023/05/07 11:26:44;;;;;;;19.43;4.50;;;;;;;;;;5000161;28;20428;-92
2023/05/07 11:29:19;;;;;;;21.33;4.03;;;;;;;;;;5015473;28;20444;-92
2023/05/07 11:31:52;;;;;;;13.87;3.50;;;;;;;;;;5016128;28;20424;-92
2023/05/07 11:34:23;;;;;;;20.57;4.03;;;;;;;;;;5000007;28;20475;-90
2023/05/07 11:36:51;;;;;;;11.93;3.07;;;;;;;;;;5032417;28;20448;-95
2023/05/07 12:08:01;;;;;;;15.77;3.50;;;;;;;;;;5026544;28;20450;-89
2023/05/07 12:10:28;;;;;;;21.07;4.00;;;;;;;;;;5035360;28;20455;-88
2023/05/07 12:12:56;;;;;;;13.67;2.60;;;;;;;;;;5034233;28;21250;-90
2023/05/07 12:15:24;;;;;;;10.50;2.90;;;;;;;;;;5034875;28;20871;-89
2023/05/07 12:17:52;;;;;;;15.80;4.00;;;;;;;;;;5033803;28;20458;-89
2023/05/07 12:20:20;;;;;;;15.87;3.47;;;;;;;;;;5033695;28;20540;-89
2023/05/07 12:22:48;;;;;;;12.93;3.97;;;;;;;;;;5017328;28;20558;-89
2023/05/07 12:25:18;;;;;;;18.17;4.40;;;;;;;;;;5034174;28;20440;-89
2023/05/07 12:27:50;;;;;;;16.77;5.27;;;;;;;;;;5033836;28;20937;-90
2023/05/07 12:30:18;;;;;;;15.30;3.40;;;;;;;;;;5033566;28;20958;-89
2023/05/07 12:32:45;;;;;;;27.47;4.90;;;;;;;;;;5017472;28;20553;-89
2023/05/07 12:35:13;;;;;;;14.53;3.53;;;;;;;;;;5017587;28;20463;-88
2023/05/07 12:37:42;;;;;;;26.97;3.60;;;;;;;;;;5033904;28;20435;-89